METAR stanice u blizini

 

LYBE - Beograd / Surčin, Srbija
Ažurirano: 15/11/2018 00:00
Vedro
Vedro
 Pravac vetra calm
Vetar: Tišina
Temperatura: 7°C
Tačka rose: 2°C
Vlažnost: 71%
Pritisak: 1028 hPa
Pregled: Vedro
Vidljivost: greater than 10 km
2018/11/14 23:00 LYBE 142300Z 00000KT CAVOK 07/02 Q1028 NOSIG
LYBT - Beograd / Batajnica, Srbija
Ažurirano: 15/11/2018 00:00
Vedro
Vedro
 Pravac vetra SZ
Vetar: SZ 7 km/h
Temperatura: 5°C
Osećaj hladnoće: 3°C
Tačka rose: 1°C
Vlažnost: 76%
Pritisak: 1028 hPa
Pregled: Vedro
Vidljivost: greater than 10 km
2018/11/14 23:00 LYBT 142300Z 31004KT CAVOK 05/01 Q1028 NOSIG
LYVR - Vršac, Srbija
Ažurirano: 15/11/2018 00:00
Partly Cloudy
Partly Cloudy
 Pravac vetra I
Vetar: I 6 km/h
Temperatura: 4°C
Tačka rose: 3°C
Vlažnost: 93%
Pritisak: 1027 hPa
Oblaci: Partly Cloudy
Vidljivost: 6 km
Cloud details: Partly Cloudy 1219 m
2018/11/14 23:00 LYVR 142300Z 08003KT 020V100 6000 SCT040 04/03 Q1027 NOSIG
 
LYKV - Lađevci, Srbija
Ažurirano: 15/11/2018 00:00
Partly Cloudy
Partly Cloudy
 Pravac vetra Z
Vetar: Z 6 km/h
Temperatura: 7°C
Tačka rose: 5°C
Vlažnost: 87%
Pritisak: 1027 hPa
Oblaci: Partly Cloudy
Vidljivost: 10 km
Cloud details: Partly Cloudy 1219 m
2018/11/14 23:00 LYKV 142300Z 28003KT 250V320 9999 SCT040 07/05 Q1027 NOSIG
LYNI - Niš, Srbija
Ažurirano: 15/11/2018 00:00
Mist, Delimično oblačno
Mist, Delimično oblačno
 Pravac vetra I
Vetar: I 6 km/h
Temperatura: 6°C
Tačka rose: 5°C
Vlažnost: 93%
Pritisak: 1026 hPa
Pregled: Mist
Oblaci: Partly Cloudy
Vidljivost: 5 km
Cloud details: Partly Cloudy 701 m
2018/11/14 23:00 LYNI 142300Z 10003KT 040V150 5000 BR SCT023 06/05 Q1026 NOSIG
BKPR - Priština, Srbija
Ažurirano: 15/11/2018 00:30
Vedro
Vedro
 Pravac vetra calm
Vetar: Tišina
Temperatura: 4°C
Tačka rose: 0°C
Vlažnost: 75%
Pritisak: 1026 hPa
Pregled: Vedro
Vidljivost: greater than 10 km
2018/11/14 23:30 BKPR 142330Z 00000KT CAVOK 04/00 Q1026 NOSIG RMK 17010095
 
LHPP - Pecs / Pogany, Hungary
Ažurirano: 14/11/2018 17:45
NOT Current
Vedro
Vedro
 Pravac vetra S
Vetar: S 15 km/h
Temperatura: 11°C
Tačka rose: 2°C
Vlažnost: 54%
Pritisak: 1029 hPa
Pregled: Vedro
Vidljivost: greater than 10 km
2018/11/14 16:45 LHPP 141645Z 35008KT CAVOK 11/02 Q1029
LHUD - Szeged, Hungary
Ažurirano: 14/11/2018 23:45
Vedro
Vedro
 Pravac vetra SSZ
Vetar: SSZ 9 km/h
Temperatura: 4°C
Osećaj hladnoće: 2°C
Tačka rose: 2°C
Vlažnost: 87%
Pritisak: 1029 hPa
Pregled: Vedro
Vidljivost: greater than 10 km
2018/11/14 22:45 LHUD 142245Z 34005KT CAVOK 04/02 Q1029
LRTR - Timisoara, Romania
Ažurirano: 15/11/2018 00:00
Vedro
Vedro
 Pravac vetra S
Vetar: S 9 km/h
Temperatura: 6°C
Osećaj hladnoće: 4°C
Tačka rose: 3°C
Vlažnost: 81%
Pritisak: 1027 hPa
Pregled: Vedro
Vidljivost: greater than 10 km
2018/11/14 23:00 LRTR 142300Z 36005KT CAVOK 06/03 Q1027
 
LRCV - Craiova, Romania
Ažurirano: 15/11/2018 00:00
Mist, Delimično oblačno
Mist, Delimično oblačno
 Pravac vetra varies
Vetar: varies 4 km/h
Temperatura: 7°C
Tačka rose: 5°C
Vlažnost: 87%
Pritisak: 1023 hPa
Pregled: Mist
Oblaci: Partly Cloudy
Vidljivost: 5 km
2018/11/14 23:00 LRCV 142300Z VRB02KT 5000 BR NSC 07/05 Q1023
LBSF - Sofia, Bulgaria
Ažurirano: 15/11/2018 00:00
Mostly Cloudy
Mostly Cloudy
 Pravac vetra Z
Vetar: Z 17 km/h
Temperatura: 8°C
Osećaj hladnoće: 5°C
Tačka rose: 5°C
Vlažnost: 82%
Pritisak: 1023 hPa
Oblaci: Mostly Cloudy
Vidljivost: 10 km
Cloud details: Mostly Cloudy 1280 m
2018/11/14 23:00 LBSF 142300Z 27009KT 9999 BKN042 08/05 Q1023 NOSIG
LWSK - Skoplje, Makedonija
Ažurirano: 15/11/2018 00:00
Mostly Cloudy
Mostly Cloudy
 Pravac vetra varies
Vetar: varies 2 km/h
Temperatura: 6°C
Tačka rose: 4°C
Vlažnost: 87%
Pritisak: 1026 hPa
Oblaci: Mostly Cloudy
Vidljivost: 10 km
Cloud details: Mostly Cloudy 1829 m
2018/11/14 23:00 LWSK 142300Z VRB01KT 9999 BKN060 06/04 Q1026 NOSIG
 
LYPG - Podgorica, Crna Gora
Ažurirano: 15/11/2018 00:00
Vedro
Vedro
 Pravac vetra S
Vetar: S 26 km/h, Maks.: 44 km/h
Temperatura: 14°C
Tačka rose: -2°C
Vlažnost: 33%
Pritisak: 1023 hPa
Pregled: Vedro
Vidljivost: greater than 10 km
2018/11/14 23:00 LYPG 142300Z 01014G24KT CAVOK 14/M02 Q1023 NOSIG
LQSA - Sarajevo, Bosna i Hercegovina
Ažurirano: 15/11/2018 00:00
Few Clouds
Few Clouds
 Pravac vetra varies
Vetar: varies 2 km/h
Temperatura: 1°C
Tačka rose: 1°C
Vlažnost: 100%
Pritisak: 1029 hPa
Oblaci: Few Clouds
Vidljivost: 8 km
Cloud details: Few Clouds 1219 m
2018/11/14 23:00 LQSA 142300Z VRB01KT 8000 FEW040 01/01 Q1029
LDOS - Osijek, Hrvatksa
Ažurirano: 15/11/2018 00:00
Vedro
Vedro
 Pravac vetra Z
Vetar: Z 13 km/h
Temperatura: 2°C
Osećaj hladnoće: -1°C
Tačka rose: -1°C
Vlažnost: 81%
Pritisak: 1028 hPa
Pregled: Vedro
Vidljivost: greater than 10 km
2018/11/14 23:00 LDOS 142300Z 27007KT CAVOK 02/M01 Q1028